Airfield :
LOGIN :

Register | Disclaimer

   EN    FR    IT 

 










Legend :    VFR   Marginal VFR   IFR   Intensive IFR   Very Intensive IFR
Visi :
Ceiling :
>= 8 km
>= 3000ft
5 to 8 km
1000 to 3000 ft
1500m to 5 km
500 to 1000 ft
800 to 1500m
200 to 500 ft
< 800m
< 200 ft
Symbols :   Thunderstorms  Fog  Heavy snow  Heavy precipitations  Wind > 20 kt
SIGMETs :     Misc.  Thunderstorms  Icing  Turbulence  Mountain Waves  Volcanic Ashes






- Airport Elevation : 24 ft
- IATA code : FAO


LPFR - Faro

CURRENT METAR :
  • 281330Z 16007KT 110V180 9999 FEW040 27/17 Q1020

EXPIRED METARs :
  • 281300Z VRB06KT 9999 FEW013 28/15 Q1020
  • 281230Z 05007KT 010V090 9999 FEW010 29/14 Q1021
  • 281200Z 04008KT 350V070 CAVOK 28/15 Q1021
  • 281130Z 36008KT 310V070 9999 FEW010 28/15 Q1021
  • 281100Z VRB06KT 9999 FEW010 28/15 Q1021

TAF TAF LPFR
Valid from the 28 at 12:00 until the 29 at 12:00 UTC


281100Z 2812/2912 VRB05KT 9999 FEW030
BECMG 2812/2814 19008KT
BECMG 2815/2817 26005KT CAVOK
BECMG 2818/2820 33010KT
BECMG 2822/2824 01008KT
BECMG 2906/2908 VRB02KT
BECMG 2910/2912 19007KT



MET'MAP, your aeronautical weather chart ! - Copyright ORBIFLY December 2007 - Disclaimer

ORBIFLY MET'MAP TEAM :

Programming & Development : Alexandra Zaïnal
Concept & original design : Baudouin d'Aumeries
Assistance for programming : Marc-Olivier Méhu
Technical & hardware support : Manuel Goepfert

Contact : metmap@orbifly.com




SOURCES & CREDITS :

   NOAA